Time;durP1;ratioP1;P1;durP2;ratioP2;P2;SDS_P1;SDS_P2;PMS_P1;PMS_P2;Temp;Humidity;BMP_temperature;BMP_pressure;BME280_temperature;BME280_humidity;BME280_pressure;Samples;Min_cycle;Max_cycle;Signal;HPM_P1;HPM_P2
2022/08/03 00:01:11;;;;;;;3.87;3.53;;;21.30;99.90;;;;;;5035261;28;20410;-82
2022/08/03 00:03:59;;;;;;;3.70;3.40;;;21.30;99.90;;;;;;5023212;28;20498;-81
2022/08/03 00:06:46;;;;;;;3.67;3.37;;;21.30;99.90;;;;;;5043565;28;20425;-81
2022/08/03 00:09:42;;;;;;;3.90;3.57;;;21.30;99.90;;;;;;5057846;28;20417;-81
2022/08/03 00:12:28;;;;;;;3.40;3.10;;;21.20;99.90;;;;;;5049121;28;20406;-79
2022/08/03 00:15:14;;;;;;;3.23;3.03;;;21.20;99.90;;;;;;5023894;28;20413;-78
2022/08/03 00:17:59;;;;;;;5.60;3.27;;;21.10;99.90;;;;;;5064606;28;20437;-78
2022/08/03 00:20:45;;;;;;;3.83;3.53;;;21.10;99.90;;;;;;5037506;28;20405;-79
2022/08/03 00:23:30;;;;;;;7.30;3.57;;;21.10;99.90;;;;;;5050578;28;20409;-78
2022/08/03 00:26:18;;;;;;;3.30;3.07;;;21.00;99.90;;;;;;5037471;28;20385;-78
2022/08/03 00:29:23;;;;;;;3.70;3.40;;;21.00;99.90;;;;;;5024863;28;20504;-78
2022/08/03 00:32:18;;;;;;;3.60;3.30;;;20.90;99.90;;;;;;5012509;28;20406;-78
2022/08/03 00:35:05;;;;;;;5.40;3.43;;;20.80;99.90;;;;;;4989838;28;20424;-78
2022/08/03 00:37:55;;;;;;;3.80;3.50;;;20.80;99.90;;;;;;4998076;28;20927;-81
2022/08/03 00:40:40;;;;;;;4.10;3.77;;;20.70;99.90;;;;;;4977167;28;20954;-82
2022/08/03 00:43:26;;;;;;;3.63;3.33;;;20.70;99.90;;;;;;4976848;28;20405;-81
2022/08/03 00:46:13;;;;;;;3.40;3.20;;;20.60;99.90;;;;;;4963745;28;20441;-81
2022/08/03 00:49:10;;;;;;;5.80;4.50;;;20.50;99.90;;;;;;4980639;28;20417;-78
2022/08/03 00:51:55;;;;;;;3.83;3.53;;;20.50;99.90;;;;;;4945571;29;20502;-81
2022/08/03 00:54:42;;;;;;;5.07;3.87;;;20.60;99.90;;;;;;4994270;28;20417;-82
2022/08/03 00:57:29;;;;;;;6.03;3.53;;;20.60;99.90;;;;;;5039964;28;20434;-81
2022/08/03 01:00:37;;;;;;;3.87;3.57;;;20.60;99.90;;;;;;5036252;28;20459;-81
2022/08/03 01:03:22;;;;;;;4.10;3.80;;;20.60;99.90;;;;;;5007816;28;20461;-81
2022/08/03 01:06:17;;;;;;;5.30;4.07;;;20.60;99.90;;;;;;4990716;28;20577;-81
2022/08/03 01:09:34;;;;;;;7.90;5.10;;;20.50;99.90;;;;;;4977547;28;20775;-82
2022/08/03 01:12:31;;;;;;;3.70;3.40;;;20.50;99.90;;;;;;4965520;28;20533;-82
2022/08/03 01:15:44;;;;;;;3.67;3.37;;;20.50;99.90;;;;;;4975498;28;20434;-82
2022/08/03 01:18:57;;;;;;;3.93;3.53;;;20.50;99.90;;;;;;4947975;29;20490;-82
2022/08/03 01:22:21;;;;;;;3.80;3.50;;;20.40;99.90;;;;;;4949798;29;20402;-82
2022/08/03 01:25:30;;;;;;;6.30;4.07;;;20.40;99.90;;;;;;4962590;29;20555;-82
2022/08/03 01:28:39;;;;;;;4.50;4.10;;;20.30;99.90;;;;;;4954229;29;20444;-82
2022/08/03 01:31:35;;;;;;;4.13;3.83;;;20.30;99.90;;;;;;4930836;29;20471;-83
2022/08/03 01:34:22;;;;;;;7.13;3.80;;;20.30;99.90;;;;;;4928197;29;20450;-81
2022/08/03 01:37:12;;;;;;;4.30;3.90;;;20.30;99.90;;;;;;4937381;29;20414;-81
2022/08/03 01:40:09;;;;;;;4.13;3.73;;;20.20;99.90;;;;;;4961917;29;20458;-82
2022/08/03 01:42:59;;;;;;;5.60;4.07;;;20.20;99.90;;;;;;4983411;28;20489;-81
2022/08/03 01:45:45;;;;;;;4.43;4.03;;;20.10;99.90;;;;;;5012843;28;20397;-81
2022/08/03 01:48:33;;;;;;;4.13;3.47;;;19.90;99.90;;;;;;5013433;28;20383;-81
2022/08/03 01:51:19;;;;;;;7.60;3.73;;;19.80;99.90;;;;;;5037977;28;20394;-81
2022/08/03 01:54:07;;;;;;;3.20;2.90;;;19.50;99.90;;;;;;5038720;28;20399;-81
2022/08/03 01:56:57;;;;;;;4.83;4.03;;;19.40;99.90;;;;;;5024887;28;20481;-81
2022/08/03 01:59:44;;;;;;;3.67;3.37;;;19.50;99.90;;;;;;5038303;28;20466;-81
2022/08/03 02:02:42;;;;;;;4.50;3.73;;;19.40;99.90;;;;;;5024839;28;20915;-81
2022/08/03 02:05:35;;;;;;;3.63;3.30;;;19.00;99.90;;;;;;5041497;28;20408;-81
2022/08/03 02:08:23;;;;;;;3.50;3.20;;;18.70;99.90;;;;;;5064155;28;20496;-81
2022/08/03 02:11:11;;;;;;;4.73;3.90;;;18.60;99.90;;;;;;5064492;28;20432;-81
2022/08/03 02:14:05;;;;;;;3.80;3.47;;;18.70;99.90;;;;;;5038248;28;20463;-81
2022/08/03 02:17:00;;;;;;;4.07;3.70;;;18.40;99.90;;;;;;5021843;28;20538;-81
2022/08/03 02:19:48;;;;;;;3.30;3.10;;;18.30;99.90;;;;;;4997504;28;20427;-81
2022/08/03 02:22:41;;;;;;;7.57;4.43;;;18.10;99.90;;;;;;5023923;28;20406;-81
2022/08/03 02:25:27;;;;;;;6.53;4.20;;;17.90;99.90;;;;;;5038088;28;20438;-81
2022/08/03 02:28:19;;;;;;;4.10;3.70;;;17.80;99.90;;;;;;5038204;28;20391;-80
2022/08/03 02:31:10;;;;;;;4.80;4.40;;;17.70;99.90;;;;;;5009620;28;20446;-81
2022/08/03 02:34:03;;;;;;;10.83;4.03;;;17.60;99.90;;;;;;5018402;28;20470;-81
2022/08/03 02:36:50;;;;;;;5.10;3.80;;;17.60;99.90;;;;;;5053177;28;20422;-81
2022/08/03 02:39:39;;;;;;;4.70;4.10;;;17.60;99.90;;;;;;5023415;28;21007;-80
2022/08/03 02:42:25;;;;;;;5.40;3.90;;;17.40;99.90;;;;;;5023827;28;20764;-80
2022/08/03 02:45:12;;;;;;;4.30;3.90;;;17.50;99.90;;;;;;5045392;28;20402;-81
2022/08/03 02:48:02;;;;;;;5.00;4.10;;;17.50;99.90;;;;;;5032562;28;20407;-81
2022/08/03 02:51:08;;;;;;;4.73;4.33;;;17.40;99.90;;;;;;5037909;28;20471;-80
2022/08/03 02:53:55;;;;;;;3.97;3.63;;;17.40;99.90;;;;;;5004078;28;20896;-81
2022/08/03 02:56:43;;;;;;;4.93;4.33;;;17.40;99.90;;;;;;4998855;28;20452;-81
2022/08/03 02:59:53;;;;;;;6.10;4.27;;;17.30;99.90;;;;;;4997711;28;20496;-81
2022/08/03 03:02:41;;;;;;;4.17;3.80;;;17.40;99.90;;;;;;4907625;29;20468;-81
2022/08/03 03:05:31;;;;;;;4.30;3.90;;;17.40;99.90;;;;;;4894508;29;20404;-80
2022/08/03 03:08:17;;;;;;;4.30;3.90;;;17.30;99.90;;;;;;4926800;29;20411;-81
2022/08/03 03:11:05;;;;;;;5.47;4.17;;;17.30;99.90;;;;;;4888592;29;20511;-82
2022/08/03 03:14:17;;;;;;;4.00;3.70;;;17.20;99.90;;;;;;4873393;29;20458;-82
2022/08/03 03:17:07;;;;;;;4.37;3.97;;;17.30;99.90;;;;;;4883003;29;20426;-81
2022/08/03 03:19:54;;;;;;;4.23;3.90;;;17.10;99.90;;;;;;4884024;29;20494;-81
2022/08/03 03:22:41;;;;;;;4.53;4.13;;;17.10;99.90;;;;;;4889251;29;20411;-81
2022/08/03 03:25:25;;;;;;;4.43;3.87;;;17.10;99.90;;;;;;4870027;29;20751;-82
2022/08/03 03:28:10;;;;;;;4.13;3.83;;;17.00;99.90;;;;;;4881208;29;20425;-81
2022/08/03 03:31:00;;;;;;;4.30;4.00;;;17.00;99.90;;;;;;4862470;29;20410;-81
2022/08/03 03:33:46;;;;;;;4.20;3.80;;;17.00;99.90;;;;;;4835318;29;20445;-80
2022/08/03 03:36:54;;;;;;;4.93;4.30;;;17.10;99.90;;;;;;4814602;29;20448;-80
2022/08/03 03:39:43;;;;;;;4.90;4.10;;;17.20;99.90;;;;;;4802241;29;20508;-79
2022/08/03 03:42:49;;;;;;;4.53;4.13;;;17.40;99.90;;;;;;4805208;29;20410;-81
2022/08/03 03:45:41;;;;;;;4.30;4.00;;;17.60;99.90;;;;;;4821745;29;20945;-81
2022/08/03 03:48:30;;;;;;;7.47;4.37;;;18.00;99.90;;;;;;4822225;29;20435;-81
2022/08/03 03:51:19;;;;;;;5.10;4.60;;;18.20;99.90;;;;;;4825291;29;20473;-82
2022/08/03 03:54:06;;;;;;;4.17;3.87;;;18.40;99.90;;;;;;4826646;29;20460;-81
2022/08/03 03:56:51;;;;;;;4.50;4.10;;;18.50;99.90;;;;;;4863812;29;20438;-81
2022/08/03 03:59:38;;;;;;;4.07;3.73;;;18.50;99.90;;;;;;4852432;29;20486;-81
2022/08/03 04:02:24;;;;;;;3.57;3.33;;;18.50;99.90;;;;;;4851281;29;20429;-82
2022/08/03 04:11:23;;;;;;;4.80;4.17;;;18.60;99.90;;;;;;4859720;29;20419;-82
2022/08/03 04:14:14;;;;;;;4.90;4.40;;;18.70;99.90;;;;;;4891822;29;20424;-82
2022/08/03 04:17:03;;;;;;;5.43;4.20;;;18.70;99.90;;;;;;4900787;29;20506;-82
2022/08/03 04:19:51;;;;;;;5.67;5.03;;;18.60;99.90;;;;;;4907999;29;20496;-82
2022/08/03 04:22:38;;;;;;;5.90;5.30;;;18.60;99.90;;;;;;4925143;29;20448;-81
2022/08/03 04:25:28;;;;;;;4.60;4.20;;;18.60;99.90;;;;;;4969416;28;20481;-82
2022/08/03 04:28:16;;;;;;;5.10;4.60;;;18.60;99.90;;;;;;4967800;28;20436;-80
2022/08/03 04:31:03;;;;;;;3.97;3.67;;;18.60;99.90;;;;;;4969747;28;20434;-81
2022/08/03 04:33:52;;;;;;;5.13;3.97;;;18.60;99.90;;;;;;4945228;28;20937;-81
2022/08/03 04:37:04;;;;;;;4.30;3.93;;;18.60;99.90;;;;;;4997717;28;20554;-81
2022/08/03 04:40:14;;;;;;;7.23;5.00;;;18.70;99.90;;;;;;4962230;29;20539;-79
2022/08/03 04:43:02;;;;;;;4.20;3.90;;;18.70;99.90;;;;;;4954838;29;20493;-79
2022/08/03 04:46:14;;;;;;;4.33;3.97;;;18.80;99.90;;;;;;4954629;29;20482;-80
2022/08/03 04:49:00;;;;;;;6.70;4.60;;;18.80;99.90;;;;;;4907142;29;20526;-79
2022/08/03 04:51:49;;;;;;;5.27;4.87;;;18.70;99.90;;;;;;4886142;29;20439;-79
2022/08/03 04:54:55;;;;;;;5.33;4.50;;;18.60;99.90;;;;;;4887507;29;20417;-79
2022/08/03 04:57:41;;;;;;;5.10;4.60;;;18.40;99.90;;;;;;4896214;29;21045;-78
2022/08/03 05:00:26;;;;;;;4.13;3.80;;;18.60;99.90;;;;;;4851337;29;20423;-79
2022/08/03 05:03:13;;;;;;;4.30;3.90;;;18.60;99.90;;;;;;4858032;29;20511;-78
2022/08/03 05:06:00;;;;;;;6.03;4.60;;;18.70;99.90;;;;;;4845025;29;21052;-79
2022/08/03 05:09:05;;;;;;;5.37;4.50;;;18.80;99.90;;;;;;4829342;29;20444;-80
2022/08/03 05:11:49;;;;;;;7.07;5.30;;;19.00;99.90;;;;;;4844033;29;20454;-79
2022/08/03 05:14:37;;;;;;;4.97;4.57;;;18.70;99.90;;;;;;4857490;29;20487;-79
2022/08/03 05:17:22;;;;;;;5.20;4.70;;;19.00;99.90;;;;;;4844774;29;21115;-82
2022/08/03 05:20:06;;;;;;;5.30;4.90;;;19.10;99.90;;;;;;4825781;29;21010;-79
2022/08/03 05:22:51;;;;;;;5.60;4.90;;;19.20;99.90;;;;;;4852895;29;20484;-79
2022/08/03 05:25:36;;;;;;;5.47;5.00;;;19.40;99.90;;;;;;4879322;29;20482;-80
2022/08/03 05:28:22;;;;;;;5.63;5.13;;;19.50;99.90;;;;;;4907911;29;20417;-79
2022/08/03 05:31:09;;;;;;;8.27;5.33;;;19.60;99.90;;;;;;4895651;29;20479;-79
2022/08/03 05:33:56;;;;;;;5.67;4.70;;;19.70;99.90;;;;;;4910286;29;20479;-78
2022/08/03 05:36:45;;;;;;;23.47;6.13;;;19.70;99.90;;;;;;4901132;29;20578;-79
2022/08/03 05:39:51;;;;;;;5.10;4.63;;;19.80;99.90;;;;;;4853676;29;20482;-79
2022/08/03 05:42:38;;;;;;;6.03;4.97;;;19.80;99.90;;;;;;4835076;29;20640;-79
2022/08/03 05:45:42;;;;;;;7.10;4.93;;;19.90;99.90;;;;;;4834964;29;20451;-79
2022/08/03 05:48:48;;;;;;;5.23;4.73;;;19.90;99.90;;;;;;4831975;29;20460;-79
2022/08/03 05:51:37;;;;;;;5.93;5.30;;;19.70;99.90;;;;;;4832969;29;20456;-79
2022/08/03 05:54:23;;;;;;;4.70;4.30;;;19.80;99.90;;;;;;4795240;29;20934;-78
2022/08/03 05:57:12;;;;;;;5.50;4.80;;;19.80;99.90;;;;;;4744544;30;21015;-78
2022/08/03 05:59:57;;;;;;;5.63;5.10;;;20.00;99.90;;;;;;4779856;30;20454;-79
2022/08/03 06:02:43;;;;;;;5.80;5.30;;;20.10;99.90;;;;;;4795251;30;20488;-79
2022/08/03 06:05:30;;;;;;;6.30;5.30;;;20.20;99.90;;;;;;4807249;29;20490;-82
2022/08/03 06:08:20;;;;;;;5.70;5.20;;;20.40;99.90;;;;;;4849347;29;20460;-82
2022/08/03 06:11:05;;;;;;;12.40;4.77;;;20.50;99.90;;;;;;4849904;29;20455;-82
2022/08/03 06:13:50;;;;;;;5.67;5.17;;;20.60;99.90;;;;;;4862748;29;20441;-81
2022/08/03 06:16:54;;;;;;;5.80;5.30;;;20.50;99.90;;;;;;4862886;29;20457;-82
2022/08/03 06:19:42;;;;;;;5.80;5.20;;;20.70;99.90;;;;;;4894555;29;20505;-81
2022/08/03 06:22:28;;;;;;;10.50;4.50;;;20.50;99.90;;;;;;4917075;29;20468;-81
2022/08/03 06:25:16;;;;;;;14.40;6.00;;;20.30;99.90;;;;;;4923827;28;20437;-82
2022/08/03 06:28:04;;;;;;;7.20;5.50;;;20.40;99.90;;;;;;4978897;28;20577;-81
2022/08/03 06:30:48;;;;;;;5.27;4.87;;;20.10;99.90;;;;;;4977105;28;20445;-79
2022/08/03 06:33:35;;;;;;;5.93;5.37;;;20.20;99.90;;;;;;4935882;28;20992;-79
2022/08/03 06:36:21;;;;;;;4.97;4.57;;;20.40;99.90;;;;;;4979475;28;20484;-84
2022/08/03 06:39:07;;;;;;;5.67;4.43;;;20.50;99.90;;;;;;4957740;28;20480;-80
2022/08/03 06:41:53;;;;;;;5.50;5.00;;;20.90;99.90;;;;;;4966196;28;20508;-82
2022/08/03 06:44:41;;;;;;;4.73;4.37;;;21.00;99.90;;;;;;4965704;28;20426;-80
2022/08/03 06:47:45;;;;;;;5.63;5.10;;;21.20;99.90;;;;;;4983918;28;20445;-79
2022/08/03 06:50:38;;;;;;;5.30;4.87;;;21.30;99.90;;;;;;4969987;28;20437;-80
2022/08/03 06:53:23;;;;;;;6.37;5.03;;;21.10;99.90;;;;;;4955418;28;20525;-83
2022/08/03 06:56:09;;;;;;;3.20;2.93;;;21.20;99.90;;;;;;5002443;28;20455;-79
2022/08/03 06:58:55;;;;;;;3.93;3.63;;;21.20;99.90;;;;;;5017444;28;21035;-79
2022/08/03 07:01:40;;;;;;;5.00;4.60;;;21.50;99.90;;;;;;5002879;28;20474;-83
2022/08/03 07:04:24;;;;;;;4.60;4.07;;;21.70;99.90;;;;;;5002361;28;20443;-80
2022/08/03 07:07:10;;;;;;;5.20;4.00;;;21.70;99.90;;;;;;5016005;28;20472;-83
2022/08/03 07:09:57;;;;;;;4.80;4.40;;;21.80;99.90;;;;;;5015411;28;21239;-82
2022/08/03 07:12:46;;;;;;;4.33;4.03;;;22.00;99.90;;;;;;4990463;28;20431;-82
2022/08/03 07:15:35;;;;;;;4.20;3.87;;;22.00;99.90;;;;;;5009993;28;20439;-81
2022/08/03 07:18:20;;;;;;;5.33;4.73;;;21.90;99.90;;;;;;4993290;28;20477;-83
2022/08/03 07:21:06;;;;;;;4.47;4.07;;;22.00;99.90;;;;;;4955737;28;20594;-81
2022/08/03 07:24:14;;;;;;;4.40;3.73;;;22.20;99.90;;;;;;4938826;28;20979;-81
2022/08/03 07:27:03;;;;;;;4.40;4.00;;;22.40;99.90;;;;;;4904837;29;20457;-79
2022/08/03 07:29:58;;;;;;;4.20;3.80;;;22.60;99.90;;;;;;4941318;29;20454;-79
2022/08/03 07:32:43;;;;;;;5.03;4.10;;;22.70;99.90;;;;;;4945599;29;20497;-81
2022/08/03 07:35:28;;;;;;;4.90;4.40;;;22.70;99.90;;;;;;4915826;29;20464;-82
2022/08/03 07:38:15;;;;;;;4.93;4.47;;;22.80;99.90;;;;;;4949157;29;20518;-81
2022/08/03 07:41:01;;;;;;;4.10;3.80;;;22.90;99.90;;;;;;4941865;29;20502;-79
2022/08/03 07:43:45;;;;;;;3.90;3.60;;;23.00;99.90;;;;;;4942897;29;20506;-80
2022/08/03 07:46:32;;;;;;;4.30;3.90;;;22.90;99.90;;;;;;4899345;29;20465;-79
2022/08/03 07:49:16;;;;;;;4.20;3.70;;;23.00;99.90;;;;;;4901343;29;20449;-80
2022/08/03 07:55:08;;;;;;;4.10;3.80;;;23.20;99.90;;;;;;4918298;29;20474;-80
2022/08/03 07:58:14;;;;;;;3.87;3.57;;;23.40;99.90;;;;;;4934897;29;20474;-79
2022/08/03 08:01:00;;;;;;;5.03;4.73;;;23.30;99.90;;;;;;4922577;29;20458;-83
2022/08/03 08:03:47;;;;;;;4.63;3.97;;;23.40;99.90;;;;;;4921517;29;20455;-82
2022/08/03 08:06:33;;;;;;;5.23;4.23;;;23.60;99.90;;;;;;4942800;28;20501;-79
2022/08/03 08:09:20;;;;;;;3.63;3.33;;;23.80;99.90;;;;;;4956603;28;20466;-80
2022/08/03 08:12:07;;;;;;;9.33;3.93;;;24.00;99.90;;;;;;5008552;28;20486;-79
2022/08/03 08:14:54;;;;;;;4.60;3.90;;;24.10;99.90;;;;;;5009405;28;20549;-81
2022/08/03 08:17:49;;;;;;;4.07;3.50;;;24.30;99.90;;;;;;5025617;28;20861;-79
2022/08/03 08:20:37;;;;;;;3.70;3.40;;;24.30;99.90;;;;;;5036640;28;20449;-80
2022/08/03 08:23:23;;;;;;;4.63;3.97;;;24.40;99.90;;;;;;4999495;28;20979;-80
2022/08/03 08:26:09;;;;;;;3.67;3.37;;;24.40;99.90;;;;;;5041489;28;20526;-81
2022/08/03 08:28:56;;;;;;;9.40;5.27;;;24.50;99.90;;;;;;5045836;28;20432;-81
2022/08/03 08:31:44;;;;;;;3.60;3.30;;;24.70;99.90;;;;;;5022919;28;20864;-80
2022/08/03 08:34:30;;;;;;;4.87;3.97;;;24.80;99.90;;;;;;5055669;28;20461;-80
2022/08/03 08:37:15;;;;;;;5.03;3.67;;;25.00;99.90;;;;;;5049259;28;20530;-81
2022/08/03 08:40:04;;;;;;;3.83;3.60;;;24.90;99.90;;;;;;5053481;28;20564;-82
2022/08/03 08:42:51;;;;;;;5.00;3.97;;;25.00;99.90;;;;;;5075767;28;20507;-80
2022/08/03 08:45:58;;;;;;;4.27;3.87;;;25.10;99.90;;;;;;5046878;28;20598;-80
2022/08/03 08:49:09;;;;;;;13.70;5.80;;;25.20;99.90;;;;;;5036644;28;20504;-79
2022/08/03 08:51:58;;;;;;;4.10;3.70;;;25.30;99.90;;;;;;4992947;28;20482;-81
2022/08/03 08:54:44;;;;;;;4.90;3.60;;;25.40;99.90;;;;;;4989281;28;20455;-79
2022/08/03 08:57:36;;;;;;;4.30;2.97;;;25.50;99.90;;;;;;5007942;28;20455;-81
2022/08/03 09:00:21;;;;;;;13.80;4.93;;;25.60;99.90;;;;;;5011804;28;20490;-83
2022/08/03 09:03:05;;;;;;;12.07;11.00;;;25.70;99.90;;;;;;4986031;28;20448;-80
2022/08/03 09:05:50;;;;;;;3.20;3.00;;;25.90;99.90;;;;;;5012931;28;20963;-81
2022/08/03 09:08:35;;;;;;;3.30;3.00;;;26.00;99.90;;;;;;5015055;28;20443;-80
2022/08/03 09:11:22;;;;;;;3.17;2.97;;;26.10;99.90;;;;;;5007554;28;20434;-80
2022/08/03 09:14:07;;;;;;;3.50;3.20;;;26.30;99.90;;;;;;5017949;28;20437;-79
2022/08/03 09:17:01;;;;;;;4.10;3.70;;;26.40;99.90;;;;;;5011815;28;20441;-82
2022/08/03 09:20:06;;;;;;;5.33;3.90;;;26.20;99.90;;;;;;5009643;28;20204;-79
2022/08/03 09:23:00;;;;;;;3.30;3.10;;;26.30;99.90;;;;;;5033637;28;20489;-81
2022/08/03 09:25:45;;;;;;;3.60;3.30;;;26.50;99.90;;;;;;5077670;28;20441;-80
2022/08/03 09:28:54;;;;;;;5.80;4.30;;;26.70;99.90;;;;;;5076503;28;20479;-82
2022/08/03 09:31:41;;;;;;;5.80;3.47;;;26.70;99.90;;;;;;5053254;28;20541;-82
2022/08/03 09:34:27;;;;;;;5.80;3.10;;;27.00;99.90;;;;;;5082625;28;20564;-84
2022/08/03 09:37:16;;;;;;;5.13;3.40;;;27.00;99.90;;;;;;5071006;28;20468;-78
2022/08/03 09:40:00;;;;;;;3.00;2.70;;;27.00;99.90;;;;;;5071317;28;20451;-84
2022/08/03 09:43:00;;;;;;;3.27;3.00;;;27.20;99.90;;;;;;5071822;28;20455;-79
2022/08/03 09:45:45;;;;;;;4.00;3.70;;;27.50;99.90;;;;;;5078341;28;20962;-79
2022/08/03 09:48:32;;;;;;;5.03;4.60;;;27.60;99.90;;;;;;5065532;28;21000;-79
2022/08/03 09:51:23;;;;;;;4.10;3.50;;;27.80;99.90;;;;;;5083238;28;20573;-79
2022/08/03 09:54:07;;;;;;;3.17;2.97;;;27.90;99.90;;;;;;5091587;28;20432;-84
2022/08/03 09:56:52;;;;;;;11.30;4.07;;;28.00;99.90;;;;;;5079626;28;20529;-79
2022/08/03 09:59:36;;;;;;;3.30;3.10;;;28.10;99.90;;;;;;5080277;28;20452;-82
2022/08/03 10:02:23;;;;;;;7.70;3.33;;;28.20;99.90;;;;;;5080348;28;20430;-80
2022/08/03 10:05:11;;;;;;;3.30;3.00;;;28.30;99.90;;;;;;5116585;28;20479;-78
2022/08/03 10:08:01;;;;;;;3.90;3.50;;;28.40;99.70;;;;;;5092206;28;20894;-78
2022/08/03 10:11:08;;;;;;;4.00;3.63;;;28.50;99.00;;;;;;5087013;28;20443;-80
2022/08/03 10:13:53;;;;;;;3.03;2.77;;;28.70;99.90;;;;;;5004329;28;20511;-81
2022/08/03 10:16:40;;;;;;;3.63;3.07;;;28.70;93.30;;;;;;5015226;28;20466;-79
2022/08/03 10:19:25;;;;;;;4.70;2.43;;;28.90;93.40;;;;;;4966389;28;20565;-79
2022/08/03 10:22:17;;;;;;;2.97;2.77;;;28.90;94.10;;;;;;4920172;29;20443;-79
2022/08/03 10:25:15;;;;;;;3.23;2.93;;;29.20;91.80;;;;;;4925144;29;20507;-80
2022/08/03 10:28:06;;;;;;;3.70;3.10;;;29.40;91.40;;;;;;4907440;29;20476;-81
2022/08/03 10:30:55;;;;;;;3.80;2.50;;;29.40;92.20;;;;;;4913339;29;20435;-80
2022/08/03 10:34:02;;;;;;;4.00;2.60;;;29.50;90.00;;;;;;4927508;29;20430;-79
2022/08/03 10:37:11;;;;;;;3.20;2.90;;;29.40;87.30;;;;;;4889825;29;20429;-79
2022/08/03 10:39:58;;;;;;;3.17;2.97;;;29.80;86.80;;;;;;4881787;29;20497;-80
2022/08/03 10:42:45;;;;;;;3.90;2.70;;;30.00;84.70;;;;;;4869015;29;20459;-82
2022/08/03 10:45:34;;;;;;;3.40;3.00;;;30.30;83.50;;;;;;4854140;29;20923;-82
2022/08/03 10:48:21;;;;;;;2.90;2.50;;;30.20;84.30;;;;;;4836267;29;20495;-80
2022/08/03 10:51:07;;;;;;;3.40;2.80;;;30.10;82.00;;;;;;4875802;29;20442;-79
2022/08/03 10:53:55;;;;;;;2.90;2.70;;;30.30;80.80;;;;;;4893295;29;20456;-80
2022/08/03 11:00:03;;;;;;;2.93;2.60;;;30.30;79.30;;;;;;4930757;29;20934;-81
2022/08/03 11:03:03;;;;;;;2.73;2.53;;;30.30;78.20;;;;;;4939597;28;20534;-80
2022/08/03 11:05:48;;;;;;;3.43;2.90;;;30.70;77.60;;;;;;4982471;28;20448;-82
2022/08/03 11:08:34;;;;;;;3.87;3.47;;;31.10;80.10;;;;;;4978901;28;20498;-80
2022/08/03 11:11:27;;;;;;;2.80;2.60;;;31.10;76.80;;;;;;4986793;28;20458;-80
2022/08/03 11:14:15;;;;;;;2.50;2.40;;;31.10;76.30;;;;;;5008937;28;20478;-82
2022/08/03 11:17:07;;;;;;;2.87;2.67;;;31.20;78.70;;;;;;5006508;28;20434;-81
2022/08/03 11:19:53;;;;;;;2.80;2.60;;;31.60;73.80;;;;;;5029962;28;20835;-80
2022/08/03 11:22:52;;;;;;;2.43;2.23;;;31.30;72.50;;;;;;5069263;28;20510;-83
2022/08/03 11:26:02;;;;;;;3.97;2.73;;;31.90;74.80;;;;;;5066632;28;20512;-81
2022/08/03 11:28:48;;;;;;;3.20;3.00;;;31.40;72.30;;;;;;5091383;28;20265;-81
2022/08/03 11:31:51;;;;;;;3.05;2.85;;;31.50;71.00;;;;;;5094981;28;20289;-80
2022/08/03 11:35:07;;;;;;;3.25;2.95;;;31.50;71.80;;;;;;5079881;28;20203;-82
2022/08/03 11:38:04;;;;;;;2.80;2.60;;;31.30;70.10;;;;;;5099418;28;20668;-81
2022/08/03 11:40:51;;;;;;;2.55;2.35;;;31.30;71.50;;;;;;5101496;27;20218;-82
2022/08/03 11:43:44;;;;;;;3.78;3.13;;;31.70;67.70;;;;;;5105312;27;20214;-80
2022/08/03 11:46:36;;;;;;;3.50;3.20;;;31.80;65.70;;;;;;5090984;28;20204;-82
2022/08/03 11:49:22;;;;;;;2.38;2.10;;;32.10;64.70;;;;;;5102468;27;20322;-80
2022/08/03 11:52:08;;;;;;;2.75;2.55;;;32.30;63.40;;;;;;5098095;28;20184;-81
2022/08/03 11:54:53;;;;;;;2.63;2.42;;;33.10;61.90;;;;;;5116644;27;20187;-82
2022/08/03 11:57:51;;;;;;;2.78;2.58;;;32.50;61.40;;;;;;5089068;27;20250;-80
2022/08/03 12:00:36;;;;;;;3.33;2.40;;;32.40;62.90;;;;;;5107333;27;20192;-83
2022/08/03 12:03:21;;;;;;;3.55;3.20;;;33.00;62.20;;;;;;5112924;27;20179;-82
2022/08/03 12:06:10;;;;;;;2.70;2.50;;;34.00;58.60;;;;;;5109829;28;20180;-83
2022/08/03 12:08:54;;;;;;;4.53;2.58;;;33.80;59.00;;;;;;5110332;28;20245;-81
2022/08/03 12:11:39;;;;;;;4.40;2.95;;;34.00;58.00;;;;;;5112227;28;20218;-82
2022/08/03 12:14:23;;;;;;;3.90;3.40;;;34.50;61.20;;;;;;5107257;28;20536;-81
2022/08/03 12:17:08;;;;;;;6.90;3.13;;;35.10;56.20;;;;;;5096914;28;20624;-79
2022/08/03 12:19:52;;;;;;;3.00;2.80;;;34.40;55.70;;;;;;5114167;28;20227;-81
2022/08/03 12:22:39;;;;;;;3.83;2.75;;;35.70;55.10;;;;;;5094890;28;20235;-81
2022/08/03 12:25:26;;;;;;;3.22;2.85;;;34.60;54.30;;;;;;5110545;27;20167;-84
2022/08/03 12:28:17;;;;;;;3.22;3.03;;;35.70;53.30;;;;;;5085304;28;20755;-83
2022/08/03 12:31:06;;;;;;;2.88;2.67;;;35.30;52.50;;;;;;5110791;27;20180;-81
2022/08/03 12:34:07;;;;;;;3.03;2.83;;;35.50;53.10;;;;;;5114065;28;20291;-81
2022/08/03 12:36:55;;;;;;;2.25;2.15;;;35.90;51.80;;;;;;5114742;28;20231;-81
2022/08/03 12:39:40;;;;;;;2.60;2.40;;;36.50;53.00;;;;;;5108311;28;20235;-84
2022/08/03 12:42:36;;;;;;;3.00;2.70;;;36.90;49.30;;;;;;5113042;28;20173;-82
2022/08/03 12:45:23;;;;;;;2.70;2.50;;;36.30;49.60;;;;;;5107986;28;20186;-80
2022/08/03 12:48:10;;;;;;;2.88;2.67;;;35.90;51.00;;;;;;5107512;28;20202;-81
2022/08/03 12:51:08;;;;;;;8.10;3.22;;;34.50;50.70;;;;;;5085896;28;20313;-79
2022/08/03 12:53:54;;;;;;;2.78;2.58;;;34.70;53.20;;;;;;5114590;28;20258;-82
2022/08/03 12:56:57;;;;;;;2.65;2.45;;;34.80;52.30;;;;;;5114163;28;20203;-80
2022/08/03 12:59:47;;;;;;;2.83;2.60;;;35.30;51.40;;;;;;5121066;28;20640;-80
2022/08/03 13:02:31;;;;;;;3.58;3.35;;;34.60;51.50;;;;;;5115301;28;20192;-79
2022/08/03 13:05:16;;;;;;;3.97;3.15;;;35.30;52.20;;;;;;5083728;28;20176;-82
2022/08/03 13:08:01;;;;;;;2.78;2.38;;;36.20;50.90;;;;;;5116654;28;20208;-82
2022/08/03 13:10:46;;;;;;;2.80;2.60;;;36.00;50.00;;;;;;5117464;28;20258;-82
2022/08/03 13:13:38;;;;;;;2.80;2.60;;;36.90;49.80;;;;;;5122427;28;20537;-80
2022/08/03 13:16:23;;;;;;;3.33;3.03;;;37.70;47.90;;;;;;5117761;27;20184;-81
2022/08/03 13:19:09;;;;;;;3.05;2.60;;;37.60;47.40;;;;;;5117478;28;20251;-81
2022/08/03 13:21:53;;;;;;;2.97;2.78;;;36.80;46.60;;;;;;5113404;28;20521;-80
2022/08/03 13:24:38;;;;;;;2.95;2.75;;;35.40;48.50;;;;;;5116122;28;20198;-81
2022/08/03 13:27:24;;;;;;;3.80;2.78;;;36.60;50.10;;;;;;5116961;27;20585;-81
2022/08/03 13:30:09;;;;;;;3.20;3.00;;;37.00;48.30;;;;;;5118249;28;20662;-82
2022/08/03 13:32:53;;;;;;;2.60;2.50;;;36.00;48.60;;;;;;5108224;28;20191;-81
2022/08/03 13:35:38;;;;;;;2.78;2.58;;;35.90;49.30;;;;;;5114688;27;20259;-81
2022/08/03 13:38:22;;;;;;;4.32;2.47;;;37.30;49.30;;;;;;5120367;27;20236;-82
2022/08/03 13:41:07;;;;;;;3.65;2.92;;;37.80;49.60;;;;;;5113980;28;20577;-79
2022/08/03 13:43:51;;;;;;;3.03;2.83;;;37.40;47.10;;;;;;5111198;27;20180;-80
2022/08/03 13:46:36;;;;;;;3.00;2.80;;;37.00;49.00;;;;;;5112137;28;20889;-81
2022/08/03 13:49:21;;;;;;;2.95;2.70;;;36.10;47.50;;;;;;5101537;28;20762;-80
2022/08/03 13:52:12;;;;;;;2.95;2.75;;;36.00;47.20;;;;;;5128406;27;20179;-80
2022/08/03 13:54:56;;;;;;;3.10;2.90;;;35.90;49.00;;;;;;5107460;27;20187;-79
2022/08/03 13:57:40;;;;;;;3.20;2.95;;;35.10;50.20;;;;;;5123744;27;20665;-80
2022/08/03 14:00:24;;;;;;;8.15;7.38;;;34.90;49.60;;;;;;5094586;27;20184;-81
2022/08/03 14:03:09;;;;;;;2.65;2.45;;;35.10;50.10;;;;;;5127922;27;20165;-82
2022/08/03 14:05:54;;;;;;;3.03;2.83;;;35.80;48.30;;;;;;5118240;28;20202;-81
2022/08/03 14:08:39;;;;;;;3.25;2.83;;;36.70;48.00;;;;;;5107462;27;20202;-80
2022/08/03 14:11:23;;;;;;;3.17;2.97;;;36.40;47.20;;;;;;5107531;27;20189;-79
2022/08/03 14:14:07;;;;;;;2.80;2.60;;;35.80;47.40;;;;;;5116045;27;20186;-80
2022/08/03 14:16:52;;;;;;;2.22;2.13;;;35.90;47.10;;;;;;5126319;27;20172;-80
2022/08/03 14:19:36;;;;;;;3.42;3.22;;;35.80;50.00;;;;;;5134576;27;20284;-80
2022/08/03 14:22:21;;;;;;;3.80;2.50;;;35.00;49.30;;;;;;5113259;27;20169;-81
2022/08/03 14:25:05;;;;;;;8.77;8.23;;;35.20;50.20;;;;;;5117904;27;20180;-81
2022/08/03 14:27:49;;;;;;;5.60;3.03;;;34.90;49.70;;;;;;5107586;27;20188;-81
2022/08/03 14:30:35;;;;;;;3.28;3.08;;;35.00;49.50;;;;;;5112684;27;20179;-81
2022/08/03 14:33:20;;;;;;;3.03;2.83;;;34.90;49.50;;;;;;5116725;27;20213;-81
2022/08/03 14:36:05;;;;;;;3.20;3.00;;;34.60;49.30;;;;;;5118778;27;20671;-80
2022/08/03 14:38:49;;;;;;;2.90;2.70;;;34.40;50.60;;;;;;5122163;28;20761;-78
2022/08/03 14:41:33;;;;;;;2.70;2.50;;;34.00;50.20;;;;;;5100891;28;20177;-79
2022/08/03 14:44:17;;;;;;;2.30;2.20;;;34.40;50.90;;;;;;5134047;27;20160;-80
2022/08/03 14:47:01;;;;;;;4.75;3.03;;;35.20;49.90;;;;;;5129958;27;20173;-80
2022/08/03 14:49:46;;;;;;;3.88;2.50;;;35.30;49.10;;;;;;5091617;28;20169;-81
2022/08/03 14:52:32;;;;;;;3.65;2.85;;;34.90;49.50;;;;;;5119347;28;20180;-81
2022/08/03 14:55:16;;;;;;;4.18;2.90;;;34.40;48.40;;;;;;5129078;27;20172;-79